Rybnik, Poland
Current Conditions -  °F | °C
As of 11:00 AM on Saturday 25 Oct 2014 (Local Time) from EPKT Reporting Station
Clear Clear  
Wind Chill: 39°   Ceiling: Unl
Heat Index: 43°   Visibility: 6mi
Dew Point: 34°   Wind: 6mph
Humidity: 70%   Direction: 130°SE
Pressure: 30.24"   Gusts: NA
Location:  50.1°N, 18.55°E
Report Text: EPKT 250900Z 13005KT 060V200 CAVOK 06/01 Q1024
Loading
Personal Weather Stations






























Interactive Weather Map
Tropical Storm Tracking
New forecast layout! Learn more

10-Day Weather Forecast

Advertisements
Track Severe Weather on mobile